Kettle Falls, WA

6:28 AM PDT on July 29, 2014 (GMT -0700)
Deer Park (KDEW) Elev 2205 ft | 47.97 °N, 117.42 °W | Change Station

Current weather conditions updated 35 minutes ago

Clear
Clear
57 °F
Feels Like 57 °F
N
0
Wind Variable Wind from North

Today is forecast to be Warmer than yesterday.

Today
High -- | Low -- °F
--% Chance of Precip.
Yesterday
High -- | Low -- °F
Precip. -- in
5:21 AM 8:35 PM
Waxing Crescent, 6% visible
Pressure 30.04 in
Visibility 10.0 miles
Clouds Clear
Dew Point 48 °F
Humidity 72%
Rainfall 0.00 in
Snow Depth 1 in
UV 0 out of 12
Pollen 6.90 out of 12
Air Quality Not available.
Flu Activity Not available.
METAR KDEW 291253Z AUTO 00000KT 10SM CLR 14/09 A3008 RMK AO2 SLP170 T01390089 $

More Conditions Fewer Conditions

Pressure 30.04 in
Visibility 10.0 miles
Clouds Clear
Dew Point 48 °F
Humidity 72%
Rainfall 0.00 in
Snow Depth 1 in
UV 0 out of 12
Pollen 6.90 out of 12
Air Quality Not available.
Flu Activity Not available.
METAR KDEW 291253Z AUTO 00000KT 10SM CLR 14/09 A3008 RMK AO2 SLP170 T01390089 $

More Conditions Fewer Conditions

10-Day Weather Forecast

Almanac

Astronomy

Jul. 29, 2014 Rise Set
Actual Time 5:21 AM PDT 8:35 PM PDT
Civil Twilight 4:43 AM PDT 9:13 PM PDT
Nautical Twilight 3:53 AM PDT 10:03 PM PDT
Astronomical Twilight 2:49 AM PDT 11:06 PM PDT
Moon 8:21 AM PDT 9:29 PM PDT
Length of Visible Light 16h 29m
Length of Day
15h 14m
Tomorrow will be 2m 44s shorter.
Waxing Crescent, 6% of the Moon is Illuminated
Today
Waxing Crescent
Aug 3
First Quarter
Aug 10
Full
Aug 17
Last Quarter
Aug 25
New

Today's Extremes

State Highs State Lows

Community

WunderPhotos

Upload Photos

1,738,713 photos uploaded!

Nearby

Snow Depth

Station Depth Elevation
Sentinel Butte 1 in 4920 ft
Bunchgrass Meadow 0 in 5000 ft
Moses Mountain 1 in 5300 ft
Quartz Peak 1 in 4700 ft
Harts Pass 0 in 6500 ft

Earthquake Activity

City Distance Mag. Time & Date
No recent earthquake activity has been reported nearby.
Minimum magnitude displayed is 2.5.

Coastal Water Temperatures

Place Temperature
No Stations Reporting

Nearby Weather Stations

Station Location Temp. Dew Point Humidity Wind Precip. Elev Updated Type
Grand Forks 56.2 °F 50 °F 81% SSE  at  0.0 mph 0.00 in / hr 1686 ft 6:25 AM PDT Normal
Squaw Creek Ranch Weather Station, Northport, WA 55.8 °F 56 °F 99% NW  at  0.7 mph 0.00 in / hr 1457 ft 6:28 AM PDT Rapid Fire
RAWS OWL MOUNTAIN WA, Laurier, WA 68 °F 42 °F 39% North  at  0 mph 0.00 in / hr 3560 ft 5:56 AM PDT MADIS
Bodie Mountain, Onion Creek, WA 59.3 °F 40 °F 49% East  at  0.0 mph - / hr 3250 ft 6:18 AM PDT Normal
Red Mountain, Rossland 63.0 °F 49 °F 60% SSE  at  0.0 mph 0.00 in / hr 3789 ft 6:28 AM PDT Rapid Fire

Show More Stations Show Fewer Stations